Galloway, NJ

10:15 AM EDT on August 30, 2015 (GMT -0400)
Coventry Village - Smithville - NJ | | Change Station
CLOSE
Current Station
Personal Weather Station
Location: Galloway, NJ
Elevation: 69 ft
Nearby Weather Stations

Elev 69 ft 39.48 °N, 74.48 °W | Updated 8 minutes ago

Clear
Clear
78.4 °F
Feels Like 80 °F
N
0.0
Wind Variable Wind from WNW

Today
High -- | Low -- °F
--% Chance of Precip.
Yesterday
High -- | Low -- °F
Precip. -- in
6:24 AM 7:32 PM
Full, 99% visible
Pressure 30.13 in
Visibility 10.0 miles
Clouds Clear
Heat Index 80 °F
Dew Point 66 °F
Humidity 65%
Rainfall 0.00 in
Snow Depth Not available.
UV 3 out of 12
Pollen 9.80 out of 12
Air Quality Not available.
Flu Activity Not available.
METAR KACY 301254Z AUTO 24006KT 10SM CLR 25/17 A3013 RMK AO2 SLP203 T02500172 TSNO
Pressure 30.13 in
Visibility 10.0 miles
Clouds Clear
Heat Index 80 °F
Dew Point 66 °F
Humidity 65%
Rainfall 0.00 in
Snow Depth Not available.
UV 3 out of 12
Pollen 9.80 out of 12
Air Quality Not available.
Flu Activity Not available.
METAR KACY 301254Z AUTO 24006KT 10SM CLR 25/17 A3013 RMK AO2 SLP203 T02500172 TSNO

10-Day Weather Forecast

×

Almanac

Astronomy

Aug. 30, 2015 Rise Set
Actual Time
Civil Twilight
Nautical Twilight
Astronomical Twilight
Moon
Length of Visible Light
Length of Day
Tomorrow will be .
, % of the Moon is Illuminated

Today's Extremes

State Highs State Lows

Community

WunderPhotos

Upload Photos

1,850,968 photos uploaded!

WunderBlogs® & News

Nearby

Air Quality

  Air Quality AQ Index Pollutant
Not available.

Snow Depth

Station Depth Elevation

Earthquake Activity

City Distance Mag. Time & Date
Minimum magnitude displayed is 2.5.

Coastal Water Temperatures

Place Temperature

Stations

Nearby Weather Stations

Station Location Temp. Windchill Dew Point Humidity Wind Precip. Elev Updated Type